sensor_id;sensor_type;location;lat;lon;timestamp;temperature;humidity
27940;DHT22;15275;51.716;14.324;2023-03-01T00:01:48;0.00;77.80
27940;DHT22;15275;51.716;14.324;2023-03-01T00:04:14;-0.10;77.80
27940;DHT22;15275;51.716;14.324;2023-03-01T00:06:41;-0.10;77.80
27940;DHT22;15275;51.716;14.324;2023-03-01T00:09:08;-0.10;77.70
27940;DHT22;15275;51.716;14.324;2023-03-01T00:11:34;-0.10;77.70
27940;DHT22;15275;51.716;14.324;2023-03-01T00:14:01;-0.10;77.70
27940;DHT22;15275;51.716;14.324;2023-03-01T00:16:30;-0.10;77.60
27940;DHT22;15275;51.716;14.324;2023-03-01T00:18:59;-0.10;77.60
27940;DHT22;15275;51.716;14.324;2023-03-01T00:21:26;-0.10;77.60
27940;DHT22;15275;51.716;14.324;2023-03-01T00:23:53;-0.20;77.50
27940;DHT22;15275;51.716;14.324;2023-03-01T00:26:21;-0.20;77.40
27940;DHT22;15275;51.716;14.324;2023-03-01T00:28:49;-0.20;77.40
27940;DHT22;15275;51.716;14.324;2023-03-01T00:31:21;-0.30;77.40
27940;DHT22;15275;51.716;14.324;2023-03-01T00:33:47;-0.30;77.40
27940;DHT22;15275;51.716;14.324;2023-03-01T00:36:14;-0.30;77.60
27940;DHT22;15275;51.716;14.324;2023-03-01T00:38:43;-0.30;78.40
27940;DHT22;15275;51.716;14.324;2023-03-01T00:41:13;-0.30;78.80
27940;DHT22;15275;51.716;14.324;2023-03-01T00:43:41;-0.30;79.00
27940;DHT22;15275;51.716;14.324;2023-03-01T00:46:09;-0.30;78.80
27940;DHT22;15275;51.716;14.324;2023-03-01T00:48:40;-0.30;78.70
27940;DHT22;15275;51.716;14.324;2023-03-01T00:51:21;-0.30;78.50
27940;DHT22;15275;51.716;14.324;2023-03-01T00:53:53;-0.30;78.50
27940;DHT22;15275;51.716;14.324;2023-03-01T00:56:20;-0.30;78.30
27940;DHT22;15275;51.716;14.324;2023-03-01T00:58:46;-0.30;78.10
27940;DHT22;15275;51.716;14.324;2023-03-01T01:01:22;-0.30;78.10
27940;DHT22;15275;51.716;14.324;2023-03-01T01:03:51;-0.40;78.10
27940;DHT22;15275;51.716;14.324;2023-03-01T01:06:31;-0.40;78.00
27940;DHT22;15275;51.716;14.324;2023-03-01T01:08:59;-0.40;78.00
27940;DHT22;15275;51.716;14.324;2023-03-01T01:11:28;-0.50;77.90
27940;DHT22;15275;51.716;14.324;2023-03-01T01:13:54;-0.50;77.90
27940;DHT22;15275;51.716;14.324;2023-03-01T01:16:24;-0.50;77.80
27940;DHT22;15275;51.716;14.324;2023-03-01T01:18:51;-0.50;77.80
27940;DHT22;15275;51.716;14.324;2023-03-01T01:21:20;-0.60;77.70
27940;DHT22;15275;51.716;14.324;2023-03-01T01:23:48;-0.60;77.70
27940;DHT22;15275;51.716;14.324;2023-03-01T01:26:16;-0.70;77.60
27940;DHT22;15275;51.716;14.324;2023-03-01T01:28:53;-0.70;77.60
27940;DHT22;15275;51.716;14.324;2023-03-01T01:31:19;-0.70;77.60
27940;DHT22;15275;51.716;14.324;2023-03-01T01:33:46;-0.70;77.60
27940;DHT22;15275;51.716;14.324;2023-03-01T01:36:12;-0.80;77.60
27940;DHT22;15275;51.716;14.324;2023-03-01T01:38:40;-0.80;77.70
27940;DHT22;15275;51.716;14.324;2023-03-01T01:41:09;-0.80;77.70
27940;DHT22;15275;51.716;14.324;2023-03-01T01:43:43;-0.80;77.70
27940;DHT22;15275;51.716;14.324;2023-03-01T01:46:32;-0.80;77.80
27940;DHT22;15275;51.716;14.324;2023-03-01T01:49:44;-0.80;77.70
27940;DHT22;15275;51.716;14.324;2023-03-01T01:52:11;-0.80;77.70
27940;DHT22;15275;51.716;14.324;2023-03-01T01:54:50;-0.90;77.60
27940;DHT22;15275;51.716;14.324;2023-03-01T01:57:27;-0.90;77.70
27940;DHT22;15275;51.716;14.324;2023-03-01T02:00:20;-0.90;77.70
27940;DHT22;15275;51.716;14.324;2023-03-01T02:02:50;-0.90;77.70
27940;DHT22;15275;51.716;14.324;2023-03-01T02:08:20;-1.00;77.70
27940;DHT22;15275;51.716;14.324;2023-03-01T02:10:48;-1.00;77.70
27940;DHT22;15275;51.716;14.324;2023-03-01T02:13:14;-1.00;77.70
27940;DHT22;15275;51.716;14.324;2023-03-01T02:15:41;-1.10;77.70
27940;DHT22;15275;51.716;14.324;2023-03-01T02:18:10;-1.10;77.70
27940;DHT22;15275;51.716;14.324;2023-03-01T02:21:14;-1.10;77.70
27940;DHT22;15275;51.716;14.324;2023-03-01T02:23:42;-1.10;77.70
27940;DHT22;15275;51.716;14.324;2023-03-01T02:26:23;-1.10;77.20
27940;DHT22;15275;51.716;14.324;2023-03-01T02:28:57;-1.10;77.50
27940;DHT22;15275;51.716;14.324;2023-03-01T02:31:22;-1.20;77.50
27940;DHT22;15275;51.716;14.324;2023-03-01T02:34:19;-1.20;77.60
27940;DHT22;15275;51.716;14.324;2023-03-01T02:36:49;-1.20;77.70
27940;DHT22;15275;51.716;14.324;2023-03-01T02:39:22;-1.20;77.70
27940;DHT22;15275;51.716;14.324;2023-03-01T02:41:53;-1.30;77.70
27940;DHT22;15275;51.716;14.324;2023-03-01T02:44:21;-1.30;77.60
27940;DHT22;15275;51.716;14.324;2023-03-01T02:46:52;-1.30;77.70
27940;DHT22;15275;51.716;14.324;2023-03-01T02:49:23;-1.30;77.70
27940;DHT22;15275;51.716;14.324;2023-03-01T02:52:53;-1.30;77.80
27940;DHT22;15275;51.716;14.324;2023-03-01T02:55:25;-1.30;77.90
27940;DHT22;15275;51.716;14.324;2023-03-01T02:57:51;-1.30;78.00
27940;DHT22;15275;51.716;14.324;2023-03-01T03:00:30;-1.30;78.00
27940;DHT22;15275;51.716;14.324;2023-03-01T03:02:59;-1.30;78.00
27940;DHT22;15275;51.716;14.324;2023-03-01T03:05:30;-1.30;77.90
27940;DHT22;15275;51.716;14.324;2023-03-01T03:07:58;-1.30;77.90
27940;DHT22;15275;51.716;14.324;2023-03-01T03:10:28;-1.30;77.90
27940;DHT22;15275;51.716;14.324;2023-03-01T03:13:04;-1.30;77.80
27940;DHT22;15275;51.716;14.324;2023-03-01T03:15:32;-1.30;77.80
27940;DHT22;15275;51.716;14.324;2023-03-01T03:18:02;-1.30;77.70
27940;DHT22;15275;51.716;14.324;2023-03-01T03:20:32;-1.30;77.60
27940;DHT22;15275;51.716;14.324;2023-03-01T03:22:58;-1.30;77.60
27940;DHT22;15275;51.716;14.324;2023-03-01T03:25:26;-1.30;77.60
27940;DHT22;15275;51.716;14.324;2023-03-01T03:27:53;-1.30;77.60
27940;DHT22;15275;51.716;14.324;2023-03-01T03:30:23;-1.30;77.50
27940;DHT22;15275;51.716;14.324;2023-03-01T03:32:51;-1.30;77.40
27940;DHT22;15275;51.716;14.324;2023-03-01T03:35:25;-1.30;77.40
27940;DHT22;15275;51.716;14.324;2023-03-01T03:37:56;-1.30;77.30
27940;DHT22;15275;51.716;14.324;2023-03-01T03:40:41;-1.40;77.20
27940;DHT22;15275;51.716;14.324;2023-03-01T03:43:12;-1.40;77.20
27940;DHT22;15275;51.716;14.324;2023-03-01T03:45:40;-1.40;77.20
27940;DHT22;15275;51.716;14.324;2023-03-01T03:48:08;-1.40;77.20
27940;DHT22;15275;51.716;14.324;2023-03-01T03:50:36;-1.50;77.20
27940;DHT22;15275;51.716;14.324;2023-03-01T03:53:06;-1.50;77.20
27940;DHT22;15275;51.716;14.324;2023-03-01T03:55:38;-1.50;77.30
27940;DHT22;15275;51.716;14.324;2023-03-01T03:58:07;-1.50;77.20
27940;DHT22;15275;51.716;14.324;2023-03-01T04:00:41;-1.50;77.20
27940;DHT22;15275;51.716;14.324;2023-03-01T04:03:09;-1.50;77.20
27940;DHT22;15275;51.716;14.324;2023-03-01T04:05:36;-1.50;77.10
27940;DHT22;15275;51.716;14.324;2023-03-01T04:08:03;-1.50;77.10
27940;DHT22;15275;51.716;14.324;2023-03-01T04:10:38;-1.60;77.00
27940;DHT22;15275;51.716;14.324;2023-03-01T04:13:07;-1.60;77.00
27940;DHT22;15275;51.716;14.324;2023-03-01T04:15:34;-1.60;77.10
27940;DHT22;15275;51.716;14.324;2023-03-01T04:18:01;-1.60;77.10
27940;DHT22;15275;51.716;14.324;2023-03-01T04:20:30;-1.60;77.10
27940;DHT22;15275;51.716;14.324;2023-03-01T04:25:39;-1.60;77.00
27940;DHT22;15275;51.716;14.324;2023-03-01T04:28:07;-1.60;77.00
27940;DHT22;15275;51.716;14.324;2023-03-01T04:30:35;-1.60;77.00
27940;DHT22;15275;51.716;14.324;2023-03-01T04:33:06;-1.70;77.10
27940;DHT22;15275;51.716;14.324;2023-03-01T04:35:32;-1.70;77.10
27940;DHT22;15275;51.716;14.324;2023-03-01T04:38:00;-1.70;77.00
27940;DHT22;15275;51.716;14.324;2023-03-01T04:40:26;-1.70;77.00
27940;DHT22;15275;51.716;14.324;2023-03-01T04:42:52;-1.70;76.90
27940;DHT22;15275;51.716;14.324;2023-03-01T04:45:18;-1.70;76.90
27940;DHT22;15275;51.716;14.324;2023-03-01T04:47:45;-1.70;76.90
27940;DHT22;15275;51.716;14.324;2023-03-01T04:50:14;-1.80;76.90
27940;DHT22;15275;51.716;14.324;2023-03-01T04:52:42;-1.80;77.00
27940;DHT22;15275;51.716;14.324;2023-03-01T04:55:10;-1.80;76.90
27940;DHT22;15275;51.716;14.324;2023-03-01T04:57:36;-1.80;76.90
27940;DHT22;15275;51.716;14.324;2023-03-01T05:00:04;-1.80;76.90
27940;DHT22;15275;51.716;14.324;2023-03-01T05:02:52;-1.80;76.90
27940;DHT22;15275;51.716;14.324;2023-03-01T05:05:35;-1.80;76.90
27940;DHT22;15275;51.716;14.324;2023-03-01T05:08:05;-1.80;76.90
27940;DHT22;15275;51.716;14.324;2023-03-01T05:10:34;-1.80;76.90
27940;DHT22;15275;51.716;14.324;2023-03-01T05:13:01;-1.80;76.90
27940;DHT22;15275;51.716;14.324;2023-03-01T05:15:30;-1.90;76.90
27940;DHT22;15275;51.716;14.324;2023-03-01T05:17:58;-1.90;76.80
27940;DHT22;15275;51.716;14.324;2023-03-01T05:20:27;-1.90;76.80
27940;DHT22;15275;51.716;14.324;2023-03-01T05:22:56;-1.90;76.80
27940;DHT22;15275;51.716;14.324;2023-03-01T05:25:31;-1.90;76.80
27940;DHT22;15275;51.716;14.324;2023-03-01T05:28:02;-2.00;76.80
27940;DHT22;15275;51.716;14.324;2023-03-01T05:30:33;-2.00;76.90
27940;DHT22;15275;51.716;14.324;2023-03-01T05:33:00;-2.00;76.90
27940;DHT22;15275;51.716;14.324;2023-03-01T05:35:27;-2.00;76.90
27940;DHT22;15275;51.716;14.324;2023-03-01T05:37:54;-2.00;76.90
27940;DHT22;15275;51.716;14.324;2023-03-01T05:40:22;-2.00;76.90
27940;DHT22;15275;51.716;14.324;2023-03-01T05:42:54;-2.00;77.00
27940;DHT22;15275;51.716;14.324;2023-03-01T05:45:23;-2.00;77.00
27940;DHT22;15275;51.716;14.324;2023-03-01T05:47:50;-2.00;77.10
27940;DHT22;15275;51.716;14.324;2023-03-01T05:50:22;-2.00;77.10
27940;DHT22;15275;51.716;14.324;2023-03-01T05:52:51;-2.00;77.20
27940;DHT22;15275;51.716;14.324;2023-03-01T05:55:25;-2.00;77.00
27940;DHT22;15275;51.716;14.324;2023-03-01T05:57:51;-2.00;77.10
27940;DHT22;15275;51.716;14.324;2023-03-01T06:00:19;-2.00;77.10
27940;DHT22;15275;51.716;14.324;2023-03-01T06:02:48;-2.00;77.10
27940;DHT22;15275;51.716;14.324;2023-03-01T06:05:14;-2.00;77.20
27940;DHT22;15275;51.716;14.324;2023-03-01T06:07:41;-2.00;77.10
27940;DHT22;15275;51.716;14.324;2023-03-01T06:10:08;-2.00;77.10
27940;DHT22;15275;51.716;14.324;2023-03-01T06:12:37;-2.00;77.20
27940;DHT22;15275;51.716;14.324;2023-03-01T06:15:05;-2.00;77.20
27940;DHT22;15275;51.716;14.324;2023-03-01T06:17:33;-2.00;77.20
27940;DHT22;15275;51.716;14.324;2023-03-01T06:20:18;-2.00;77.30
27940;DHT22;15275;51.716;14.324;2023-03-01T06:22:46;-2.00;77.40
27940;DHT22;15275;51.716;14.324;2023-03-01T06:25:14;-2.00;77.40
27940;DHT22;15275;51.716;14.324;2023-03-01T06:27:46;-2.00;77.60
27940;DHT22;15275;51.716;14.324;2023-03-01T06:30:13;-1.90;77.70
27940;DHT22;15275;51.716;14.324;2023-03-01T06:32:41;-1.90;77.90
27940;DHT22;15275;51.716;14.324;2023-03-01T06:35:11;-1.80;78.00
27940;DHT22;15275;51.716;14.324;2023-03-01T06:37:40;-1.80;78.10
27940;DHT22;15275;51.716;14.324;2023-03-01T06:40:07;-1.70;78.20
27940;DHT22;15275;51.716;14.324;2023-03-01T06:42:38;-1.70;78.40
27940;DHT22;15275;51.716;14.324;2023-03-01T06:45:06;-1.60;78.60
27940;DHT22;15275;51.716;14.324;2023-03-01T06:47:33;-1.50;78.70
27940;DHT22;15275;51.716;14.324;2023-03-01T06:49:59;-1.50;78.80
27940;DHT22;15275;51.716;14.324;2023-03-01T06:52:26;-1.40;78.90
27940;DHT22;15275;51.716;14.324;2023-03-01T06:54:52;-1.30;79.00
27940;DHT22;15275;51.716;14.324;2023-03-01T06:57:18;-1.20;79.10
27940;DHT22;15275;51.716;14.324;2023-03-01T06:59:44;-1.20;79.00
27940;DHT22;15275;51.716;14.324;2023-03-01T07:02:11;-1.10;79.10
27940;DHT22;15275;51.716;14.324;2023-03-01T07:04:38;-1.00;79.30
27940;DHT22;15275;51.716;14.324;2023-03-01T07:07:04;-0.90;79.40
27940;DHT22;15275;51.716;14.324;2023-03-01T07:09:30;-0.90;79.50
27940;DHT22;15275;51.716;14.324;2023-03-01T07:11:56;-0.80;79.60
27940;DHT22;15275;51.716;14.324;2023-03-01T07:14:22;-0.70;79.70
27940;DHT22;15275;51.716;14.324;2023-03-01T07:16:51;-0.60;79.80
27940;DHT22;15275;51.716;14.324;2023-03-01T07:19:18;-0.50;79.90
27940;DHT22;15275;51.716;14.324;2023-03-01T07:21:44;-0.40;80.00
27940;DHT22;15275;51.716;14.324;2023-03-01T07:24:10;-0.30;80.00
27940;DHT22;15275;51.716;14.324;2023-03-01T07:26:37;-0.20;80.10
27940;DHT22;15275;51.716;14.324;2023-03-01T07:29:04;-0.10;80.20
27940;DHT22;15275;51.716;14.324;2023-03-01T07:31:31;0.10;80.30
27940;DHT22;15275;51.716;14.324;2023-03-01T07:33:57;0.20;80.40
27940;DHT22;15275;51.716;14.324;2023-03-01T07:36:24;0.30;80.30
27940;DHT22;15275;51.716;14.324;2023-03-01T07:38:50;0.40;80.70
27940;DHT22;15275;51.716;14.324;2023-03-01T07:41:16;0.60;80.60
27940;DHT22;15275;51.716;14.324;2023-03-01T07:43:42;0.70;80.50
27940;DHT22;15275;51.716;14.324;2023-03-01T07:46:08;0.80;80.60
27940;DHT22;15275;51.716;14.324;2023-03-01T07:48:35;0.90;80.60
27940;DHT22;15275;51.716;14.324;2023-03-01T07:51:02;1.00;80.40
27940;DHT22;15275;51.716;14.324;2023-03-01T07:53:30;1.10;80.50
27940;DHT22;15275;51.716;14.324;2023-03-01T07:56:09;1.30;80.60
27940;DHT22;15275;51.716;14.324;2023-03-01T07:58:40;1.40;80.70
27940;DHT22;15275;51.716;14.324;2023-03-01T08:01:09;1.60;80.60
27940;DHT22;15275;51.716;14.324;2023-03-01T08:03:40;1.70;80.60
27940;DHT22;15275;51.716;14.324;2023-03-01T08:06:08;1.80;80.40
27940;DHT22;15275;51.716;14.324;2023-03-01T08:08:35;2.00;80.40
27940;DHT22;15275;51.716;14.324;2023-03-01T08:11:03;2.10;80.30
27940;DHT22;15275;51.716;14.324;2023-03-01T08:13:31;2.30;80.30
27940;DHT22;15275;51.716;14.324;2023-03-01T08:16:12;2.40;80.20
27940;DHT22;15275;51.716;14.324;2023-03-01T08:18:40;2.60;80.00
27940;DHT22;15275;51.716;14.324;2023-03-01T08:21:09;2.70;79.80
27940;DHT22;15275;51.716;14.324;2023-03-01T08:23:36;2.80;79.70
27940;DHT22;15275;51.716;14.324;2023-03-01T08:26:23;2.90;79.60
27940;DHT22;15275;51.716;14.324;2023-03-01T08:28:49;3.10;79.20
27940;DHT22;15275;51.716;14.324;2023-03-01T08:33:50;3.40;79.00
27940;DHT22;15275;51.716;14.324;2023-03-01T08:36:24;3.50;78.70
27940;DHT22;15275;51.716;14.324;2023-03-01T08:38:52;3.60;78.50
27940;DHT22;15275;51.716;14.324;2023-03-01T08:41:19;3.70;78.50
27940;DHT22;15275;51.716;14.324;2023-03-01T08:43:45;3.90;78.40
27940;DHT22;15275;51.716;14.324;2023-03-01T08:46:11;4.00;78.20
27940;DHT22;15275;51.716;14.324;2023-03-01T08:48:37;4.10;78.00
27940;DHT22;15275;51.716;14.324;2023-03-01T08:51:18;4.20;78.00
27940;DHT22;15275;51.716;14.324;2023-03-01T08:53:45;4.30;77.60
27940;DHT22;15275;51.716;14.324;2023-03-01T08:56:12;4.40;77.60
27940;DHT22;15275;51.716;14.324;2023-03-01T08:58:38;4.50;77.10
27940;DHT22;15275;51.716;14.324;2023-03-01T09:01:09;4.60;77.10
27940;DHT22;15275;51.716;14.324;2023-03-01T09:03:36;4.70;77.20
27940;DHT22;15275;51.716;14.324;2023-03-01T09:06:03;4.80;76.90
27940;DHT22;15275;51.716;14.324;2023-03-01T09:08:31;4.90;76.50
27940;DHT22;15275;51.716;14.324;2023-03-01T09:11:02;4.90;76.20
27940;DHT22;15275;51.716;14.324;2023-03-01T09:13:29;5.00;76.50
27940;DHT22;15275;51.716;14.324;2023-03-01T09:16:00;5.10;76.10
27940;DHT22;15275;51.716;14.324;2023-03-01T09:18:27;5.20;76.40
27940;DHT22;15275;51.716;14.324;2023-03-01T09:21:00;5.30;76.00
27940;DHT22;15275;51.716;14.324;2023-03-01T09:23:41;5.40;75.50
27940;DHT22;15275;51.716;14.324;2023-03-01T09:26:10;5.50;75.60
27940;DHT22;15275;51.716;14.324;2023-03-01T09:28:45;5.50;75.50
27940;DHT22;15275;51.716;14.324;2023-03-01T09:31:12;5.60;75.00
27940;DHT22;15275;51.716;14.324;2023-03-01T09:33:39;5.70;75.20
27940;DHT22;15275;51.716;14.324;2023-03-01T09:36:10;5.70;74.90
27940;DHT22;15275;51.716;14.324;2023-03-01T09:38:41;5.80;74.60
27940;DHT22;15275;51.716;14.324;2023-03-01T09:44:24;5.90;73.30
27940;DHT22;15275;51.716;14.324;2023-03-01T09:46:53;6.00;73.50
27940;DHT22;15275;51.716;14.324;2023-03-01T09:49:22;6.00;73.80
27940;DHT22;15275;51.716;14.324;2023-03-01T09:52:15;6.10;74.10
27940;DHT22;15275;51.716;14.324;2023-03-01T09:54:49;6.20;73.00
27940;DHT22;15275;51.716;14.324;2023-03-01T09:57:38;6.20;73.50
27940;DHT22;15275;51.716;14.324;2023-03-01T10:02:56;6.30;73.00
27940;DHT22;15275;51.716;14.324;2023-03-01T10:05:55;6.40;72.90
27940;DHT22;15275;51.716;14.324;2023-03-01T10:08:34;6.50;72.10
27940;DHT22;15275;51.716;14.324;2023-03-01T10:11:21;6.50;72.80
27940;DHT22;15275;51.716;14.324;2023-03-01T10:14:03;6.60;72.70
27940;DHT22;15275;51.716;14.324;2023-03-01T10:16:48;6.70;72.90
27940;DHT22;15275;51.716;14.324;2023-03-01T10:19:42;6.70;73.00
27940;DHT22;15275;51.716;14.324;2023-03-01T10:22:28;6.80;72.60
27940;DHT22;15275;51.716;14.324;2023-03-01T10:24:58;6.90;71.60
27940;DHT22;15275;51.716;14.324;2023-03-01T10:27:49;6.90;73.30
27940;DHT22;15275;51.716;14.324;2023-03-01T10:33:25;7.10;72.80
27940;DHT22;15275;51.716;14.324;2023-03-01T10:35:53;7.20;72.10
27940;DHT22;15275;51.716;14.324;2023-03-01T10:38:20;7.30;72.00
27940;DHT22;15275;51.716;14.324;2023-03-01T10:40:55;7.30;71.90
27940;DHT22;15275;51.716;14.324;2023-03-01T10:43:24;7.40;72.20
27940;DHT22;15275;51.716;14.324;2023-03-01T10:45:56;7.50;72.70
27940;DHT22;15275;51.716;14.324;2023-03-01T10:48:24;7.60;71.90
27940;DHT22;15275;51.716;14.324;2023-03-01T10:53:38;7.70;71.10
27940;DHT22;15275;51.716;14.324;2023-03-01T10:56:09;7.80;70.20
27940;DHT22;15275;51.716;14.324;2023-03-01T10:58:40;7.80;69.80
27940;DHT22;15275;51.716;14.324;2023-03-01T11:01:27;7.90;70.30
27940;DHT22;15275;51.716;14.324;2023-03-01T11:04:23;8.00;70.80
27940;DHT22;15275;51.716;14.324;2023-03-01T11:06:58;8.10;67.70
27940;DHT22;15275;51.716;14.324;2023-03-01T11:09:25;8.10;68.90
27940;DHT22;15275;51.716;14.324;2023-03-01T11:11:54;8.20;69.60
27940;DHT22;15275;51.716;14.324;2023-03-01T11:14:26;8.20;70.10
27940;DHT22;15275;51.716;14.324;2023-03-01T11:23:00;8.40;69.30
27940;DHT22;15275;51.716;14.324;2023-03-01T11:25:41;8.40;68.20
27940;DHT22;15275;51.716;14.324;2023-03-01T11:28:14;8.50;68.50
27940;DHT22;15275;51.716;14.324;2023-03-01T11:30:53;8.50;69.30
27940;DHT22;15275;51.716;14.324;2023-03-01T11:38:41;8.70;68.70
27940;DHT22;15275;51.716;14.324;2023-03-01T12:12:26;9.20;65.40
27940;DHT22;15275;51.716;14.324;2023-03-01T12:18:06;9.20;64.90
27940;DHT22;15275;51.716;14.324;2023-03-01T12:20:56;9.20;66.00
27940;DHT22;15275;51.716;14.324;2023-03-01T12:26:26;9.20;64.00
27940;DHT22;15275;51.716;14.324;2023-03-01T12:29:31;9.30;65.70
27940;DHT22;15275;51.716;14.324;2023-03-01T12:49:26;9.50;61.70
27940;DHT22;15275;51.716;14.324;2023-03-01T12:54:36;9.60;62.00
27940;DHT22;15275;51.716;14.324;2023-03-01T12:57:18;9.60;62.20
27940;DHT22;15275;51.716;14.324;2023-03-01T13:00:30;9.70;60.60
27940;DHT22;15275;51.716;14.324;2023-03-01T13:03:19;9.70;59.00
27940;DHT22;15275;51.716;14.324;2023-03-01T13:11:53;9.70;61.60
27940;DHT22;15275;51.716;14.324;2023-03-01T13:16:49;9.80;63.20
27940;DHT22;15275;51.716;14.324;2023-03-01T13:19:25;9.90;63.10
27940;DHT22;15275;51.716;14.324;2023-03-01T13:21:55;9.90;61.50
27940;DHT22;15275;51.716;14.324;2023-03-01T13:27:26;10.00;63.30
27940;DHT22;15275;51.716;14.324;2023-03-01T13:29:59;10.00;61.10
27940;DHT22;15275;51.716;14.324;2023-03-01T13:32:33;10.10;62.30
27940;DHT22;15275;51.716;14.324;2023-03-01T13:35:40;10.10;61.70
27940;DHT22;15275;51.716;14.324;2023-03-01T13:41:09;10.10;59.60
27940;DHT22;15275;51.716;14.324;2023-03-01T13:43:38;10.10;61.80
27940;DHT22;15275;51.716;14.324;2023-03-01T13:46:23;10.10;62.80
27940;DHT22;15275;51.716;14.324;2023-03-01T13:48:55;10.10;61.00
27940;DHT22;15275;51.716;14.324;2023-03-01T13:51:26;10.10;61.10
27940;DHT22;15275;51.716;14.324;2023-03-01T13:53:54;10.10;61.50
27940;DHT22;15275;51.716;14.324;2023-03-01T13:56:29;10.10;61.90
27940;DHT22;15275;51.716;14.324;2023-03-01T14:01:38;10.10;61.80
27940;DHT22;15275;51.716;14.324;2023-03-01T14:07:11;10.20;59.70
27940;DHT22;15275;51.716;14.324;2023-03-01T14:09:43;10.20;60.70
27940;DHT22;15275;51.716;14.324;2023-03-01T14:15:42;10.20;61.30
27940;DHT22;15275;51.716;14.324;2023-03-01T14:18:43;10.20;58.80
27940;DHT22;15275;51.716;14.324;2023-03-01T14:21:18;10.20;62.40
27940;DHT22;15275;51.716;14.324;2023-03-01T14:23:44;10.20;61.80
27940;DHT22;15275;51.716;14.324;2023-03-01T14:26:10;10.20;61.90
27940;DHT22;15275;51.716;14.324;2023-03-01T14:28:38;10.20;61.50
27940;DHT22;15275;51.716;14.324;2023-03-01T14:34:04;10.20;60.20
27940;DHT22;15275;51.716;14.324;2023-03-01T14:36:33;10.10;62.60
27940;DHT22;15275;51.716;14.324;2023-03-01T14:38:59;10.20;62.40
27940;DHT22;15275;51.716;14.324;2023-03-01T14:41:34;10.20;62.40
27940;DHT22;15275;51.716;14.324;2023-03-01T14:44:06;10.20;61.40
27940;DHT22;15275;51.716;14.324;2023-03-01T14:46:38;10.20;61.10
27940;DHT22;15275;51.716;14.324;2023-03-01T14:51:41;10.20;61.90
27940;DHT22;15275;51.716;14.324;2023-03-01T14:54:21;10.20;61.90
27940;DHT22;15275;51.716;14.324;2023-03-01T14:56:48;10.20;61.00
27940;DHT22;15275;51.716;14.324;2023-03-01T14:59:22;10.20;61.40
27940;DHT22;15275;51.716;14.324;2023-03-01T15:01:50;10.20;61.60
27940;DHT22;15275;51.716;14.324;2023-03-01T15:04:18;10.20;61.70
27940;DHT22;15275;51.716;14.324;2023-03-01T15:06:46;10.20;61.50
27940;DHT22;15275;51.716;14.324;2023-03-01T15:09:15;10.20;61.70
27940;DHT22;15275;51.716;14.324;2023-03-01T15:11:42;10.20;61.40
27940;DHT22;15275;51.716;14.324;2023-03-01T15:14:43;10.20;61.70
27940;DHT22;15275;51.716;14.324;2023-03-01T15:17:25;10.20;59.20
27940;DHT22;15275;51.716;14.324;2023-03-01T15:19:55;10.20;60.70
27940;DHT22;15275;51.716;14.324;2023-03-01T15:22:23;10.10;61.30
27940;DHT22;15275;51.716;14.324;2023-03-01T15:24:51;10.10;61.00
27940;DHT22;15275;51.716;14.324;2023-03-01T15:27:20;10.10;61.10
27940;DHT22;15275;51.716;14.324;2023-03-01T15:29:50;10.10;61.00
27940;DHT22;15275;51.716;14.324;2023-03-01T15:32:31;10.10;60.30
27940;DHT22;15275;51.716;14.324;2023-03-01T15:35:41;10.00;59.90
27940;DHT22;15275;51.716;14.324;2023-03-01T15:38:49;10.00;59.00
27940;DHT22;15275;51.716;14.324;2023-03-01T15:41:32;10.00;58.60
27940;DHT22;15275;51.716;14.324;2023-03-01T15:44:29;9.90;59.10
27940;DHT22;15275;51.716;14.324;2023-03-01T15:46:57;9.90;57.80
27940;DHT22;15275;51.716;14.324;2023-03-01T15:49:41;9.80;60.70
27940;DHT22;15275;51.716;14.324;2023-03-01T15:52:17;9.80;58.10
27940;DHT22;15275;51.716;14.324;2023-03-01T15:55:04;9.80;59.90
27940;DHT22;15275;51.716;14.324;2023-03-01T15:57:32;9.80;60.50
27940;DHT22;15275;51.716;14.324;2023-03-01T15:59:58;9.70;60.20
27940;DHT22;15275;51.716;14.324;2023-03-01T16:02:24;9.70;60.10
27940;DHT22;15275;51.716;14.324;2023-03-01T16:04:50;9.60;60.00
27940;DHT22;15275;51.716;14.324;2023-03-01T16:07:16;9.60;60.00
27940;DHT22;15275;51.716;14.324;2023-03-01T16:09:42;9.60;59.90
27940;DHT22;15275;51.716;14.324;2023-03-01T16:12:15;9.50;60.00
27940;DHT22;15275;51.716;14.324;2023-03-01T16:14:42;9.50;59.90
27940;DHT22;15275;51.716;14.324;2023-03-01T16:17:08;9.40;60.00
27940;DHT22;15275;51.716;14.324;2023-03-01T16:19:36;9.40;60.20
27940;DHT22;15275;51.716;14.324;2023-03-01T16:22:03;9.30;60.10
27940;DHT22;15275;51.716;14.324;2023-03-01T16:24:29;9.20;60.20
27940;DHT22;15275;51.716;14.324;2023-03-01T16:26:55;9.20;60.20
27940;DHT22;15275;51.716;14.324;2023-03-01T16:29:21;9.10;60.20
27940;DHT22;15275;51.716;14.324;2023-03-01T16:31:47;9.10;60.20
27940;DHT22;15275;51.716;14.324;2023-03-01T16:34:13;9.00;60.00
27940;DHT22;15275;51.716;14.324;2023-03-01T16:36:39;8.90;60.10
27940;DHT22;15275;51.716;14.324;2023-03-01T16:39:06;8.80;60.20
27940;DHT22;15275;51.716;14.324;2023-03-01T16:41:32;8.70;60.20
27940;DHT22;15275;51.716;14.324;2023-03-01T16:43:58;8.60;60.40
27940;DHT22;15275;51.716;14.324;2023-03-01T16:46:27;8.50;60.30
27940;DHT22;15275;51.716;14.324;2023-03-01T16:48:54;8.40;60.40
27940;DHT22;15275;51.716;14.324;2023-03-01T16:51:21;8.30;60.50
27940;DHT22;15275;51.716;14.324;2023-03-01T16:53:48;8.20;60.60
27940;DHT22;15275;51.716;14.324;2023-03-01T16:56:15;8.10;61.00
27940;DHT22;15275;51.716;14.324;2023-03-01T16:58:42;8.00;61.30
27940;DHT22;15275;51.716;14.324;2023-03-01T17:01:14;7.90;61.30
27940;DHT22;15275;51.716;14.324;2023-03-01T17:03:42;7.80;61.20
27940;DHT22;15275;51.716;14.324;2023-03-01T17:06:12;7.60;61.50
27940;DHT22;15275;51.716;14.324;2023-03-01T17:08:42;7.50;61.70
27940;DHT22;15275;51.716;14.324;2023-03-01T17:11:11;7.30;61.70
27940;DHT22;15275;51.716;14.324;2023-03-01T17:13:41;7.20;61.80
27940;DHT22;15275;51.716;14.324;2023-03-01T17:16:09;7.10;62.00
27940;DHT22;15275;51.716;14.324;2023-03-01T17:18:38;6.90;62.20
27940;DHT22;15275;51.716;14.324;2023-03-01T17:21:05;6.80;62.40
27940;DHT22;15275;51.716;14.324;2023-03-01T17:23:32;6.60;62.50
27940;DHT22;15275;51.716;14.324;2023-03-01T17:25:59;6.50;62.70
27940;DHT22;15275;51.716;14.324;2023-03-01T17:28:27;6.40;62.80
27940;DHT22;15275;51.716;14.324;2023-03-01T17:30:54;6.20;63.00
27940;DHT22;15275;51.716;14.324;2023-03-01T17:33:21;6.10;63.10
27940;DHT22;15275;51.716;14.324;2023-03-01T17:35:47;6.00;63.40
27940;DHT22;15275;51.716;14.324;2023-03-01T17:38:13;5.80;63.80
27940;DHT22;15275;51.716;14.324;2023-03-01T17:40:40;5.70;64.10
27940;DHT22;15275;51.716;14.324;2023-03-01T17:43:08;5.60;64.20
27940;DHT22;15275;51.716;14.324;2023-03-01T17:45:37;5.50;64.40
27940;DHT22;15275;51.716;14.324;2023-03-01T17:48:05;5.40;64.50